sensor_id;sensor_type;location;lat;lon;timestamp;temperature;humidity
42145;DHT22;27813;43.516;11.890;2022-12-15T00:02:53;6.70;98.40
42145;DHT22;27813;43.516;11.890;2022-12-15T00:07:16;6.70;98.50
42145;DHT22;27813;43.516;11.890;2022-12-15T00:11:38;6.70;98.40
42145;DHT22;27813;43.516;11.890;2022-12-15T00:16:00;6.70;98.40
42145;DHT22;27813;43.516;11.890;2022-12-15T00:20:23;6.70;98.40
42145;DHT22;27813;43.516;11.890;2022-12-15T00:24:45;6.70;98.40
42145;DHT22;27813;43.516;11.890;2022-12-15T00:29:07;6.70;98.40
42145;DHT22;27813;43.516;11.890;2022-12-15T05:37:08;7.50;98.40
42145;DHT22;27813;43.516;11.890;2022-12-15T05:41:13;7.50;98.40
42145;DHT22;27813;43.516;11.890;2022-12-15T05:45:17;7.50;98.40
42145;DHT22;27813;43.516;11.890;2022-12-15T05:49:21;7.50;98.40
42145;DHT22;27813;43.516;11.890;2022-12-15T05:53:26;7.50;98.40
42145;DHT22;27813;43.516;11.890;2022-12-15T05:57:32;7.50;98.40
42145;DHT22;27813;43.516;11.890;2022-12-15T06:01:36;7.50;98.40
42145;DHT22;27813;43.516;11.890;2022-12-15T06:05:40;7.50;98.40
42145;DHT22;27813;43.516;11.890;2022-12-15T06:09:45;7.50;98.30
42145;DHT22;27813;43.516;11.890;2022-12-15T06:13:49;7.50;98.30
42145;DHT22;27813;43.516;11.890;2022-12-15T06:17:53;7.50;98.30
42145;DHT22;27813;43.516;11.890;2022-12-15T06:21:58;7.50;98.40
42145;DHT22;27813;43.516;11.890;2022-12-15T06:30:13;7.50;98.30
42145;DHT22;27813;43.516;11.890;2022-12-15T06:34:19;7.50;98.30
42145;DHT22;27813;43.516;11.890;2022-12-15T06:38:23;7.50;98.40
42145;DHT22;27813;43.516;11.890;2022-12-15T06:42:27;7.50;98.40
42145;DHT22;27813;43.516;11.890;2022-12-15T06:46:32;7.50;98.40
42145;DHT22;27813;43.516;11.890;2022-12-15T06:50:37;7.60;98.40
42145;DHT22;27813;43.516;11.890;2022-12-15T06:54:43;7.60;98.40
42145;DHT22;27813;43.516;11.890;2022-12-15T06:58:48;7.60;98.40
42145;DHT22;27813;43.516;11.890;2022-12-15T07:02:53;7.60;98.40
42145;DHT22;27813;43.516;11.890;2022-12-15T07:06:57;7.60;98.40
42145;DHT22;27813;43.516;11.890;2022-12-15T07:11:09;7.70;98.40
42145;DHT22;27813;43.516;11.890;2022-12-15T07:15:13;7.70;98.40
42145;DHT22;27813;43.516;11.890;2022-12-15T07:19:17;7.70;98.40
42145;DHT22;27813;43.516;11.890;2022-12-15T07:23:21;7.70;98.40
42145;DHT22;27813;43.516;11.890;2022-12-15T07:27:46;7.70;98.40
42145;DHT22;27813;43.516;11.890;2022-12-15T07:31:50;7.80;98.40
42145;DHT22;27813;43.516;11.890;2022-12-15T07:35:55;7.80;98.40
42145;DHT22;27813;43.516;11.890;2022-12-15T07:40:00;7.90;98.50
42145;DHT22;27813;43.516;11.890;2022-12-15T07:44:04;7.90;98.50
42145;DHT22;27813;43.516;11.890;2022-12-15T07:48:08;7.90;98.50
42145;DHT22;27813;43.516;11.890;2022-12-15T07:52:12;8.00;98.50
42145;DHT22;27813;43.516;11.890;2022-12-15T07:56:19;8.10;98.50
42145;DHT22;27813;43.516;11.890;2022-12-15T08:00:23;8.20;98.50
42145;DHT22;27813;43.516;11.890;2022-12-15T08:04:27;8.20;98.50
42145;DHT22;27813;43.516;11.890;2022-12-15T08:08:32;8.30;98.50
42145;DHT22;27813;43.516;11.890;2022-12-15T08:12:37;8.40;98.60
42145;DHT22;27813;43.516;11.890;2022-12-15T08:16:41;8.50;98.60
42145;DHT22;27813;43.516;11.890;2022-12-15T08:20:45;8.50;98.60
42145;DHT22;27813;43.516;11.890;2022-12-15T08:24:52;8.70;98.60
42145;DHT22;27813;43.516;11.890;2022-12-15T08:29:02;8.80;98.60
42145;DHT22;27813;43.516;11.890;2022-12-15T08:33:27;8.90;98.50
42145;DHT22;27813;43.516;11.890;2022-12-15T08:37:32;9.00;98.40
42145;DHT22;27813;43.516;11.890;2022-12-15T08:41:37;9.00;98.40
42145;DHT22;27813;43.516;11.890;2022-12-15T08:45:41;9.10;98.30
42145;DHT22;27813;43.516;11.890;2022-12-15T08:49:45;9.20;98.40
42145;DHT22;27813;43.516;11.890;2022-12-15T08:53:49;9.30;98.40
42145;DHT22;27813;43.516;11.890;2022-12-15T08:57:53;9.40;98.40
42145;DHT22;27813;43.516;11.890;2022-12-15T09:01:58;9.60;98.30
42145;DHT22;27813;43.516;11.890;2022-12-15T09:06:04;9.70;98.20
42145;DHT22;27813;43.516;11.890;2022-12-15T09:10:08;9.70;98.10
42145;DHT22;27813;43.516;11.890;2022-12-15T09:14:13;9.70;97.90
42145;DHT22;27813;43.516;11.890;2022-12-15T09:18:17;9.80;97.90
42145;DHT22;27813;43.516;11.890;2022-12-15T09:22:21;9.90;97.90
42145;DHT22;27813;43.516;11.890;2022-12-15T09:26:26;10.00;98.00
42145;DHT22;27813;43.516;11.890;2022-12-15T09:30:32;10.10;98.00
42145;DHT22;27813;43.516;11.890;2022-12-15T09:34:37;10.30;98.00
42145;DHT22;27813;43.516;11.890;2022-12-15T09:38:43;10.50;98.00
42145;DHT22;27813;43.516;11.890;2022-12-15T09:42:52;10.70;97.90
42145;DHT22;27813;43.516;11.890;2022-12-15T09:51:47;10.90;97.50
42145;DHT22;27813;43.516;11.890;2022-12-15T09:56:00;11.00;97.30
42145;DHT22;27813;43.516;11.890;2022-12-15T10:00:19;11.00;97.20
42145;DHT22;27813;43.516;11.890;2022-12-15T10:09:06;11.00;97.20
42145;DHT22;27813;43.516;11.890;2022-12-15T10:13:39;11.20;97.40
42145;DHT22;27813;43.516;11.890;2022-12-15T10:18:01;11.30;97.30
42145;DHT22;27813;43.516;11.890;2022-12-15T10:22:15;11.50;97.40
42145;DHT22;27813;43.516;11.890;2022-12-15T10:26:25;11.70;97.30
42145;DHT22;27813;43.516;11.890;2022-12-15T10:30:33;11.90;97.30
42145;DHT22;27813;43.516;11.890;2022-12-15T10:34:39;12.10;97.20
42145;DHT22;27813;43.516;11.890;2022-12-15T10:38:45;12.10;97.10
42145;DHT22;27813;43.516;11.890;2022-12-15T10:43:36;12.20;96.90
42145;DHT22;27813;43.516;11.890;2022-12-15T10:47:40;12.20;96.90
42145;DHT22;27813;43.516;11.890;2022-12-15T10:51:49;12.20;96.80
42145;DHT22;27813;43.516;11.890;2022-12-15T10:55:59;12.30;96.80
42145;DHT22;27813;43.516;11.890;2022-12-15T11:04:30;12.40;96.90
42145;DHT22;27813;43.516;11.890;2022-12-15T11:08:36;12.70;97.20
42145;DHT22;27813;43.516;11.890;2022-12-15T11:12:41;13.10;97.40
42145;DHT22;27813;43.516;11.890;2022-12-15T11:16:58;13.30;97.00
42145;DHT22;27813;43.516;11.890;2022-12-15T11:21:06;13.50;96.60
42145;DHT22;27813;43.516;11.890;2022-12-15T11:34:03;13.10;96.20
42145;DHT22;27813;43.516;11.890;2022-12-15T11:38:49;13.10;96.60
42145;DHT22;27813;43.516;11.890;2022-12-15T11:43:23;13.30;96.70
42145;DHT22;27813;43.516;11.890;2022-12-15T11:47:36;13.50;96.70
42145;DHT22;27813;43.516;11.890;2022-12-15T11:52:10;13.50;96.40
42145;DHT22;27813;43.516;11.890;2022-12-15T11:56:38;13.20;95.80
42145;DHT22;27813;43.516;11.890;2022-12-15T12:05:36;12.70;96.40
42145;DHT22;27813;43.516;11.890;2022-12-15T12:09:51;12.50;96.60
42145;DHT22;27813;43.516;11.890;2022-12-15T12:14:14;12.20;96.70
42145;DHT22;27813;43.516;11.890;2022-12-15T12:18:36;11.90;96.40
42145;DHT22;27813;43.516;11.890;2022-12-15T12:22:59;11.50;96.40
42145;DHT22;27813;43.516;11.890;2022-12-15T12:27:53;11.20;96.80
42145;DHT22;27813;43.516;11.890;2022-12-15T12:31:55;11.00;97.10
42145;DHT22;27813;43.516;11.890;2022-12-15T12:36:14;10.80;97.40
42145;DHT22;27813;43.516;11.890;2022-12-15T12:41:13;10.60;97.60
42145;DHT22;27813;43.516;11.890;2022-12-15T12:44:50;10.50;97.70
42145;DHT22;27813;43.516;11.890;2022-12-15T12:49:16;10.50;97.90
42145;DHT22;27813;43.516;11.890;2022-12-15T12:53:34;10.40;98.00
42145;DHT22;27813;43.516;11.890;2022-12-15T12:57:40;10.30;98.10
42145;DHT22;27813;43.516;11.890;2022-12-15T13:01:45;10.30;98.20
42145;DHT22;27813;43.516;11.890;2022-12-15T13:05:51;10.30;98.20
42145;DHT22;27813;43.516;11.890;2022-12-15T13:14:19;10.10;98.30
42145;DHT22;27813;43.516;11.890;2022-12-15T13:19:02;10.10;98.30
42145;DHT22;27813;43.516;11.890;2022-12-15T13:23:35;10.10;98.40
42145;DHT22;27813;43.516;11.890;2022-12-15T13:27:41;10.20;98.50
42145;DHT22;27813;43.516;11.890;2022-12-15T13:31:52;10.20;98.50
42145;DHT22;27813;43.516;11.890;2022-12-15T13:35:57;10.10;98.50
42145;DHT22;27813;43.516;11.890;2022-12-15T13:44:50;10.20;98.60
42145;DHT22;27813;43.516;11.890;2022-12-15T13:53:22;10.10;98.50
42145;DHT22;27813;43.516;11.890;2022-12-15T13:57:33;10.20;98.50
42145;DHT22;27813;43.516;11.890;2022-12-15T14:01:51;10.20;98.60
42145;DHT22;27813;43.516;11.890;2022-12-15T14:05:58;10.10;98.50
42145;DHT22;27813;43.516;11.890;2022-12-15T14:14:27;10.20;98.60
42145;DHT22;27813;43.516;11.890;2022-12-15T14:18:35;10.20;98.60
42145;DHT22;27813;43.516;11.890;2022-12-15T14:22:45;10.20;98.60
42145;DHT22;27813;43.516;11.890;2022-12-15T14:26:56;10.20;98.60
42145;DHT22;27813;43.516;11.890;2022-12-15T14:31:17;10.20;98.60
42145;DHT22;27813;43.516;11.890;2022-12-15T14:35:29;10.20;98.70
42145;DHT22;27813;43.516;11.890;2022-12-15T14:39:35;10.20;98.60
42145;DHT22;27813;43.516;11.890;2022-12-15T14:43:40;10.20;98.70
42145;DHT22;27813;43.516;11.890;2022-12-15T14:47:55;10.30;98.60
42145;DHT22;27813;43.516;11.890;2022-12-15T14:52:35;10.30;98.60
42145;DHT22;27813;43.516;11.890;2022-12-15T14:56:40;10.30;98.70
42145;DHT22;27813;43.516;11.890;2022-12-15T15:00:50;10.40;98.70
42145;DHT22;27813;43.516;11.890;2022-12-15T15:05:04;10.40;98.70
42145;DHT22;27813;43.516;11.890;2022-12-15T15:09:22;10.40;98.70
42145;DHT22;27813;43.516;11.890;2022-12-15T15:13:37;10.50;98.70
42145;DHT22;27813;43.516;11.890;2022-12-15T15:18:03;10.50;98.70
42145;DHT22;27813;43.516;11.890;2022-12-15T15:22:31;10.60;98.70
42145;DHT22;27813;43.516;11.890;2022-12-15T15:26:37;10.50;98.70
42145;DHT22;27813;43.516;11.890;2022-12-15T15:35:44;10.60;98.70
42145;DHT22;27813;43.516;11.890;2022-12-15T15:39:52;10.70;98.60
42145;DHT22;27813;43.516;11.890;2022-12-15T15:43:59;10.60;98.60
42145;DHT22;27813;43.516;11.890;2022-12-15T15:48:04;10.70;98.60
42145;DHT22;27813;43.516;11.890;2022-12-15T15:52:12;10.70;98.70
42145;DHT22;27813;43.516;11.890;2022-12-15T15:56:17;10.80;98.60
42145;DHT22;27813;43.516;11.890;2022-12-15T16:00:23;10.70;98.60
42145;DHT22;27813;43.516;11.890;2022-12-15T16:04:30;10.80;98.60
42145;DHT22;27813;43.516;11.890;2022-12-15T16:08:34;10.80;98.60
42145;DHT22;27813;43.516;11.890;2022-12-15T16:12:46;10.80;98.60
42145;DHT22;27813;43.516;11.890;2022-12-15T16:16:51;10.90;98.60
42145;DHT22;27813;43.516;11.890;2022-12-15T16:20:57;10.90;98.70
42145;DHT22;27813;43.516;11.890;2022-12-15T16:25:03;10.90;98.60
42145;DHT22;27813;43.516;11.890;2022-12-15T16:29:15;11.00;98.60
42145;DHT22;27813;43.516;11.890;2022-12-15T16:33:20;11.10;98.60
42145;DHT22;27813;43.516;11.890;2022-12-15T16:37:25;11.10;98.50
42145;DHT22;27813;43.516;11.890;2022-12-15T16:41:30;11.10;98.60
42145;DHT22;27813;43.516;11.890;2022-12-15T16:45:34;11.20;98.60
42145;DHT22;27813;43.516;11.890;2022-12-15T16:49:39;11.30;98.50
42145;DHT22;27813;43.516;11.890;2022-12-15T16:53:44;11.30;98.50
42145;DHT22;27813;43.516;11.890;2022-12-15T16:57:50;11.30;98.40
42145;DHT22;27813;43.516;11.890;2022-12-15T17:01:56;11.30;98.30
42145;DHT22;27813;43.516;11.890;2022-12-15T17:06:03;11.30;98.30
42145;DHT22;27813;43.516;11.890;2022-12-15T17:10:16;11.30;98.30
42145;DHT22;27813;43.516;11.890;2022-12-15T17:14:21;11.30;98.30
42145;DHT22;27813;43.516;11.890;2022-12-15T17:18:25;11.20;98.20
42145;DHT22;27813;43.516;11.890;2022-12-15T17:22:31;11.30;98.30
42145;DHT22;27813;43.516;11.890;2022-12-15T17:26:40;11.30;98.30
42145;DHT22;27813;43.516;11.890;2022-12-15T17:30:46;11.30;98.40
42145;DHT22;27813;43.516;11.890;2022-12-15T17:34:50;11.40;98.40
42145;DHT22;27813;43.516;11.890;2022-12-15T17:38:57;11.50;98.60
42145;DHT22;27813;43.516;11.890;2022-12-15T17:43:15;11.70;98.60
42145;DHT22;27813;43.516;11.890;2022-12-15T17:47:21;11.90;98.60
42145;DHT22;27813;43.516;11.890;2022-12-15T17:51:28;12.00;98.50
42145;DHT22;27813;43.516;11.890;2022-12-15T17:55:33;12.10;98.50
42145;DHT22;27813;43.516;11.890;2022-12-15T17:59:41;12.20;98.40
42145;DHT22;27813;43.516;11.890;2022-12-15T18:03:46;12.20;98.30
42145;DHT22;27813;43.516;11.890;2022-12-15T18:08:02;12.20;98.30
42145;DHT22;27813;43.516;11.890;2022-12-15T18:12:24;12.20;98.20
42145;DHT22;27813;43.516;11.890;2022-12-15T18:16:33;12.30;98.20
42145;DHT22;27813;43.516;11.890;2022-12-15T18:20:49;12.30;98.20
42145;DHT22;27813;43.516;11.890;2022-12-15T18:25:01;12.30;98.20
42145;DHT22;27813;43.516;11.890;2022-12-15T18:29:12;12.40;98.20
42145;DHT22;27813;43.516;11.890;2022-12-15T18:33:19;12.40;98.20
42145;DHT22;27813;43.516;11.890;2022-12-15T18:37:24;12.50;98.20
42145;DHT22;27813;43.516;11.890;2022-12-15T18:41:29;12.60;98.20
42145;DHT22;27813;43.516;11.890;2022-12-15T18:45:41;12.60;98.10
42145;DHT22;27813;43.516;11.890;2022-12-15T18:49:47;12.70;98.10
42145;DHT22;27813;43.516;11.890;2022-12-15T18:53:53;12.60;98.00
42145;DHT22;27813;43.516;11.890;2022-12-15T18:57:59;12.60;98.00
42145;DHT22;27813;43.516;11.890;2022-12-15T19:02:06;12.50;98.10
42145;DHT22;27813;43.516;11.890;2022-12-15T19:06:25;12.50;98.10
42145;DHT22;27813;43.516;11.890;2022-12-15T19:10:51;12.50;98.20
42145;DHT22;27813;43.516;11.890;2022-12-15T19:14:59;12.60;98.20
42145;DHT22;27813;43.516;11.890;2022-12-15T19:19:09;12.60;98.20
42145;DHT22;27813;43.516;11.890;2022-12-15T19:23:35;12.60;98.10
42145;DHT22;27813;43.516;11.890;2022-12-15T19:27:41;12.60;98.10
42145;DHT22;27813;43.516;11.890;2022-12-15T19:31:45;12.60;98.10
42145;DHT22;27813;43.516;11.890;2022-12-15T19:35:52;12.60;98.20
42145;DHT22;27813;43.516;11.890;2022-12-15T19:40:02;12.70;98.20
42145;DHT22;27813;43.516;11.890;2022-12-15T19:44:15;12.70;98.20
42145;DHT22;27813;43.516;11.890;2022-12-15T19:48:20;12.80;98.10
42145;DHT22;27813;43.516;11.890;2022-12-15T19:52:27;12.70;98.00
42145;DHT22;27813;43.516;11.890;2022-12-15T19:56:32;12.60;97.90
42145;DHT22;27813;43.516;11.890;2022-12-15T20:00:41;12.60;98.10
42145;DHT22;27813;43.516;11.890;2022-12-15T20:04:53;12.60;98.10
42145;DHT22;27813;43.516;11.890;2022-12-15T20:08:59;12.60;98.10
42145;DHT22;27813;43.516;11.890;2022-12-15T20:13:10;12.70;98.10
42145;DHT22;27813;43.516;11.890;2022-12-15T20:17:17;12.60;98.00
42145;DHT22;27813;43.516;11.890;2022-12-15T20:21:30;12.50;97.90
42145;DHT22;27813;43.516;11.890;2022-12-15T20:25:40;12.50;98.10
42145;DHT22;27813;43.516;11.890;2022-12-15T20:29:48;12.50;98.10
42145;DHT22;27813;43.516;11.890;2022-12-15T20:33:57;12.60;98.20
42145;DHT22;27813;43.516;11.890;2022-12-15T20:38:31;12.60;98.10
42145;DHT22;27813;43.516;11.890;2022-12-15T20:42:42;12.60;98.10
42145;DHT22;27813;43.516;11.890;2022-12-15T20:46:49;12.50;98.10
42145;DHT22;27813;43.516;11.890;2022-12-15T20:50:53;12.50;98.00
42145;DHT22;27813;43.516;11.890;2022-12-15T20:55:00;12.50;98.10
42145;DHT22;27813;43.516;11.890;2022-12-15T20:59:06;12.50;98.10
42145;DHT22;27813;43.516;11.890;2022-12-15T21:03:22;12.50;98.00
42145;DHT22;27813;43.516;11.890;2022-12-15T21:07:29;12.50;98.10
42145;DHT22;27813;43.516;11.890;2022-12-15T21:11:35;12.50;98.00
42145;DHT22;27813;43.516;11.890;2022-12-15T21:15:43;12.50;98.10
42145;DHT22;27813;43.516;11.890;2022-12-15T21:19:50;12.50;98.10
42145;DHT22;27813;43.516;11.890;2022-12-15T21:23:59;12.50;98.10
42145;DHT22;27813;43.516;11.890;2022-12-15T21:28:12;12.50;98.10
42145;DHT22;27813;43.516;11.890;2022-12-15T21:32:17;12.50;98.10
42145;DHT22;27813;43.516;11.890;2022-12-15T21:36:22;12.50;98.10
42145;DHT22;27813;43.516;11.890;2022-12-15T21:40:27;12.50;98.10
42145;DHT22;27813;43.516;11.890;2022-12-15T21:44:33;12.40;98.10
42145;DHT22;27813;43.516;11.890;2022-12-15T21:48:38;12.40;98.10
42145;DHT22;27813;43.516;11.890;2022-12-15T21:53:10;12.40;98.10
42145;DHT22;27813;43.516;11.890;2022-12-15T21:57:22;12.40;98.10
42145;DHT22;27813;43.516;11.890;2022-12-15T22:01:28;12.40;98.10
42145;DHT22;27813;43.516;11.890;2022-12-15T22:05:34;12.30;98.10
42145;DHT22;27813;43.516;11.890;2022-12-15T22:09:39;12.40;98.20
42145;DHT22;27813;43.516;11.890;2022-12-15T22:13:43;12.40;98.10
42145;DHT22;27813;43.516;11.890;2022-12-15T22:17:49;12.30;98.20
42145;DHT22;27813;43.516;11.890;2022-12-15T22:21:53;12.30;98.20
42145;DHT22;27813;43.516;11.890;2022-12-15T22:26:01;12.30;98.20
42145;DHT22;27813;43.516;11.890;2022-12-15T22:30:19;12.30;98.20
42145;DHT22;27813;43.516;11.890;2022-12-15T22:34:28;12.30;98.30
42145;DHT22;27813;43.516;11.890;2022-12-15T22:38:37;12.30;98.30
42145;DHT22;27813;43.516;11.890;2022-12-15T22:42:44;12.30;98.30
42145;DHT22;27813;43.516;11.890;2022-12-15T22:46:53;12.40;98.30
42145;DHT22;27813;43.516;11.890;2022-12-15T22:50:59;12.40;98.30
42145;DHT22;27813;43.516;11.890;2022-12-15T22:55:04;12.40;98.40
42145;DHT22;27813;43.516;11.890;2022-12-15T22:59:24;12.40;98.30
42145;DHT22;27813;43.516;11.890;2022-12-15T23:03:32;12.50;98.30
42145;DHT22;27813;43.516;11.890;2022-12-15T23:07:41;12.50;98.30
42145;DHT22;27813;43.516;11.890;2022-12-15T23:11:45;12.60;98.30
42145;DHT22;27813;43.516;11.890;2022-12-15T23:15:51;12.70;98.20
42145;DHT22;27813;43.516;11.890;2022-12-15T23:20:14;12.70;98.20
42145;DHT22;27813;43.516;11.890;2022-12-15T23:24:19;12.70;98.20
42145;DHT22;27813;43.516;11.890;2022-12-15T23:28:33;12.70;98.10
42145;DHT22;27813;43.516;11.890;2022-12-15T23:32:39;12.70;98.00
42145;DHT22;27813;43.516;11.890;2022-12-15T23:36:43;12.70;98.10
42145;DHT22;27813;43.516;11.890;2022-12-15T23:40:49;12.70;98.00
42145;DHT22;27813;43.516;11.890;2022-12-15T23:44:58;12.60;97.80
42145;DHT22;27813;43.516;11.890;2022-12-15T23:49:02;12.50;97.60
42145;DHT22;27813;43.516;11.890;2022-12-15T23:53:07;12.40;97.80
42145;DHT22;27813;43.516;11.890;2022-12-15T23:57:11;12.30;98.00
